sensor_id;sensor_type;location;lat;lon;timestamp;temperature;humidity
52963;DHT22;38827;53.024;6.596;2023-04-24T00:01:32;11.10;80.20
52963;DHT22;38827;53.024;6.596;2023-04-24T00:03:59;11.10;80.20
52963;DHT22;38827;53.024;6.596;2023-04-24T00:06:25;11.00;80.20
52963;DHT22;38827;53.024;6.596;2023-04-24T00:08:59;11.00;80.20
52963;DHT22;38827;53.024;6.596;2023-04-24T00:11:26;11.00;80.30
52963;DHT22;38827;53.024;6.596;2023-04-24T00:13:51;11.00;80.40
52963;DHT22;38827;53.024;6.596;2023-04-24T00:16:17;11.00;80.40
52963;DHT22;38827;53.024;6.596;2023-04-24T00:18:43;10.90;80.40
52963;DHT22;38827;53.024;6.596;2023-04-24T00:21:10;10.90;80.50
52963;DHT22;38827;53.024;6.596;2023-04-24T00:23:36;10.80;80.70
52963;DHT22;38827;53.024;6.596;2023-04-24T00:26:02;10.80;80.50
52963;DHT22;38827;53.024;6.596;2023-04-24T00:28:27;10.80;80.50
52963;DHT22;38827;53.024;6.596;2023-04-24T00:30:53;10.80;80.60
52963;DHT22;38827;53.024;6.596;2023-04-24T00:33:19;10.70;80.80
52963;DHT22;38827;53.024;6.596;2023-04-24T00:35:45;10.70;80.80
52963;DHT22;38827;53.024;6.596;2023-04-24T00:38:12;10.70;80.90
52963;DHT22;38827;53.024;6.596;2023-04-24T00:40:38;10.60;81.10
52963;DHT22;38827;53.024;6.596;2023-04-24T00:43:05;10.60;81.30
52963;DHT22;38827;53.024;6.596;2023-04-24T00:45:31;10.60;81.70
52963;DHT22;38827;53.024;6.596;2023-04-24T00:47:57;10.60;81.80
52963;DHT22;38827;53.024;6.596;2023-04-24T00:50:23;10.50;81.90
52963;DHT22;38827;53.024;6.596;2023-04-24T00:52:49;10.50;82.20
52963;DHT22;38827;53.024;6.596;2023-04-24T00:55:16;10.50;82.40
52963;DHT22;38827;53.024;6.596;2023-04-24T00:57:43;10.50;82.40
52963;DHT22;38827;53.024;6.596;2023-04-24T01:00:09;10.50;82.50
52963;DHT22;38827;53.024;6.596;2023-04-24T01:02:43;10.50;82.60
52963;DHT22;38827;53.024;6.596;2023-04-24T01:05:13;10.50;82.80
52963;DHT22;38827;53.024;6.596;2023-04-24T01:07:43;10.50;82.80
52963;DHT22;38827;53.024;6.596;2023-04-24T01:10:11;10.50;83.00
52963;DHT22;38827;53.024;6.596;2023-04-24T01:12:37;10.50;83.10
52963;DHT22;38827;53.024;6.596;2023-04-24T01:15:03;10.50;83.10
52963;DHT22;38827;53.024;6.596;2023-04-24T01:17:29;10.50;83.30
52963;DHT22;38827;53.024;6.596;2023-04-24T01:19:55;10.50;83.20
52963;DHT22;38827;53.024;6.596;2023-04-24T01:22:25;10.50;83.20
52963;DHT22;38827;53.024;6.596;2023-04-24T01:24:51;10.60;83.30
52963;DHT22;38827;53.024;6.596;2023-04-24T01:27:18;10.60;83.30
52963;DHT22;38827;53.024;6.596;2023-04-24T01:29:44;10.60;83.30
52963;DHT22;38827;53.024;6.596;2023-04-24T01:32:10;10.60;83.30
52963;DHT22;38827;53.024;6.596;2023-04-24T01:34:37;10.50;83.30
52963;DHT22;38827;53.024;6.596;2023-04-24T01:37:03;10.60;83.30
52963;DHT22;38827;53.024;6.596;2023-04-24T01:39:28;10.50;83.50
52963;DHT22;38827;53.024;6.596;2023-04-24T01:41:55;10.60;83.50
52963;DHT22;38827;53.024;6.596;2023-04-24T01:44:24;10.60;83.50
52963;DHT22;38827;53.024;6.596;2023-04-24T01:46:50;10.60;83.50
52963;DHT22;38827;53.024;6.596;2023-04-24T01:49:17;10.60;83.50
52963;DHT22;38827;53.024;6.596;2023-04-24T01:51:46;10.60;83.40
52963;DHT22;38827;53.024;6.596;2023-04-24T01:54:15;10.60;83.50
52963;DHT22;38827;53.024;6.596;2023-04-24T01:56:42;10.60;83.60
52963;DHT22;38827;53.024;6.596;2023-04-24T01:59:12;10.60;83.50
52963;DHT22;38827;53.024;6.596;2023-04-24T02:01:38;10.60;83.60
52963;DHT22;38827;53.024;6.596;2023-04-24T02:04:06;10.60;83.70
52963;DHT22;38827;53.024;6.596;2023-04-24T02:06:33;10.60;83.60
52963;DHT22;38827;53.024;6.596;2023-04-24T02:08:59;10.60;83.70
52963;DHT22;38827;53.024;6.596;2023-04-24T02:11:25;10.60;83.90
52963;DHT22;38827;53.024;6.596;2023-04-24T02:13:52;10.60;83.80
52963;DHT22;38827;53.024;6.596;2023-04-24T02:16:17;10.60;83.80
52963;DHT22;38827;53.024;6.596;2023-04-24T02:18:43;10.60;83.90
52963;DHT22;38827;53.024;6.596;2023-04-24T02:21:10;10.60;84.10
52963;DHT22;38827;53.024;6.596;2023-04-24T02:23:36;10.60;84.00
52963;DHT22;38827;53.024;6.596;2023-04-24T02:26:01;10.60;84.50
52963;DHT22;38827;53.024;6.596;2023-04-24T02:28:27;10.60;84.40
52963;DHT22;38827;53.024;6.596;2023-04-24T02:30:54;10.50;84.30
52963;DHT22;38827;53.024;6.596;2023-04-24T02:33:20;10.60;84.30
52963;DHT22;38827;53.024;6.596;2023-04-24T02:35:46;10.50;84.30
52963;DHT22;38827;53.024;6.596;2023-04-24T02:38:11;10.50;84.50
52963;DHT22;38827;53.024;6.596;2023-04-24T02:40:42;10.50;84.50
52963;DHT22;38827;53.024;6.596;2023-04-24T02:43:15;10.50;84.70
52963;DHT22;38827;53.024;6.596;2023-04-24T02:45:41;10.50;84.70
52963;DHT22;38827;53.024;6.596;2023-04-24T02:48:08;10.50;84.90
52963;DHT22;38827;53.024;6.596;2023-04-24T02:50:33;10.50;84.90
52963;DHT22;38827;53.024;6.596;2023-04-24T02:52:59;10.40;84.80
52963;DHT22;38827;53.024;6.596;2023-04-24T02:55:25;10.40;84.90
52963;DHT22;38827;53.024;6.596;2023-04-24T02:57:51;10.40;85.00
52963;DHT22;38827;53.024;6.596;2023-04-24T03:00:16;10.40;84.90
52963;DHT22;38827;53.024;6.596;2023-04-24T03:02:42;10.30;85.00
52963;DHT22;38827;53.024;6.596;2023-04-24T03:05:08;10.30;84.80
52963;DHT22;38827;53.024;6.596;2023-04-24T03:07:34;10.30;84.90
52963;DHT22;38827;53.024;6.596;2023-04-24T03:10:00;10.30;84.90
52963;DHT22;38827;53.024;6.596;2023-04-24T03:12:26;10.30;85.00
52963;DHT22;38827;53.024;6.596;2023-04-24T03:15:22;10.30;85.00
52963;DHT22;38827;53.024;6.596;2023-04-24T03:17:48;10.30;84.80
52963;DHT22;38827;53.024;6.596;2023-04-24T03:20:14;10.30;84.90
52963;DHT22;38827;53.024;6.596;2023-04-24T03:22:40;10.30;84.70
52963;DHT22;38827;53.024;6.596;2023-04-24T03:25:05;10.20;84.70
52963;DHT22;38827;53.024;6.596;2023-04-24T03:27:31;10.20;84.80
52963;DHT22;38827;53.024;6.596;2023-04-24T03:29:57;10.20;84.70
52963;DHT22;38827;53.024;6.596;2023-04-24T03:32:23;10.20;84.60
52963;DHT22;38827;53.024;6.596;2023-04-24T03:34:49;10.20;84.60
52963;DHT22;38827;53.024;6.596;2023-04-24T03:37:16;10.20;84.60
52963;DHT22;38827;53.024;6.596;2023-04-24T03:39:43;10.20;84.60
52963;DHT22;38827;53.024;6.596;2023-04-24T03:42:09;10.20;84.50
52963;DHT22;38827;53.024;6.596;2023-04-24T03:44:35;10.20;84.60
52963;DHT22;38827;53.024;6.596;2023-04-24T03:47:01;10.20;84.70
52963;DHT22;38827;53.024;6.596;2023-04-24T03:49:27;10.20;84.60
52963;DHT22;38827;53.024;6.596;2023-04-24T03:51:53;10.20;84.40
52963;DHT22;38827;53.024;6.596;2023-04-24T03:54:19;10.20;84.50
52963;DHT22;38827;53.024;6.596;2023-04-24T03:56:45;10.20;84.40
52963;DHT22;38827;53.024;6.596;2023-04-24T03:59:11;10.20;84.40
52963;DHT22;38827;53.024;6.596;2023-04-24T04:01:37;10.20;84.30
52963;DHT22;38827;53.024;6.596;2023-04-24T04:04:06;10.20;84.30
52963;DHT22;38827;53.024;6.596;2023-04-24T04:06:33;10.20;84.20
52963;DHT22;38827;53.024;6.596;2023-04-24T04:09:00;10.20;84.30
52963;DHT22;38827;53.024;6.596;2023-04-24T04:11:46;10.10;84.20
52963;DHT22;38827;53.024;6.596;2023-04-24T04:14:12;10.10;84.40
52963;DHT22;38827;53.024;6.596;2023-04-24T04:16:38;10.10;84.20
52963;DHT22;38827;53.024;6.596;2023-04-24T04:19:04;10.10;84.40
52963;DHT22;38827;53.024;6.596;2023-04-24T04:21:31;10.10;84.30
52963;DHT22;38827;53.024;6.596;2023-04-24T04:23:57;10.10;84.50
52963;DHT22;38827;53.024;6.596;2023-04-24T04:26:23;10.10;84.30
52963;DHT22;38827;53.024;6.596;2023-04-24T04:28:51;10.10;84.60
52963;DHT22;38827;53.024;6.596;2023-04-24T04:31:17;10.10;84.60
52963;DHT22;38827;53.024;6.596;2023-04-24T04:33:42;10.10;84.70
52963;DHT22;38827;53.024;6.596;2023-04-24T04:36:10;10.10;84.80
52963;DHT22;38827;53.024;6.596;2023-04-24T04:38:40;10.10;84.90
52963;DHT22;38827;53.024;6.596;2023-04-24T04:41:06;10.10;85.10
52963;DHT22;38827;53.024;6.596;2023-04-24T04:43:32;10.10;85.00
52963;DHT22;38827;53.024;6.596;2023-04-24T04:46:05;10.10;85.20
52963;DHT22;38827;53.024;6.596;2023-04-24T04:48:30;10.10;85.30
52963;DHT22;38827;53.024;6.596;2023-04-24T04:50:57;10.00;85.50
52963;DHT22;38827;53.024;6.596;2023-04-24T04:53:29;10.00;85.40
52963;DHT22;38827;53.024;6.596;2023-04-24T04:55:54;10.00;85.40
52963;DHT22;38827;53.024;6.596;2023-04-24T04:58:21;10.00;85.60
52963;DHT22;38827;53.024;6.596;2023-04-24T05:00:47;10.00;85.60
52963;DHT22;38827;53.024;6.596;2023-04-24T05:03:14;10.00;85.70
52963;DHT22;38827;53.024;6.596;2023-04-24T05:05:42;9.90;85.60
52963;DHT22;38827;53.024;6.596;2023-04-24T05:08:14;9.90;85.70
52963;DHT22;38827;53.024;6.596;2023-04-24T05:10:40;9.90;85.80
52963;DHT22;38827;53.024;6.596;2023-04-24T05:13:06;9.90;85.70
52963;DHT22;38827;53.024;6.596;2023-04-24T05:15:31;9.90;85.70
52963;DHT22;38827;53.024;6.596;2023-04-24T05:17:57;9.90;85.80
52963;DHT22;38827;53.024;6.596;2023-04-24T05:20:23;9.80;85.80
52963;DHT22;38827;53.024;6.596;2023-04-24T05:22:48;9.80;85.80
52963;DHT22;38827;53.024;6.596;2023-04-24T05:25:14;9.80;86.00
52963;DHT22;38827;53.024;6.596;2023-04-24T05:27:43;9.80;86.00
52963;DHT22;38827;53.024;6.596;2023-04-24T05:30:09;9.90;86.00
52963;DHT22;38827;53.024;6.596;2023-04-24T05:32:35;9.90;86.00
52963;DHT22;38827;53.024;6.596;2023-04-24T05:35:16;10.00;86.00
52963;DHT22;38827;53.024;6.596;2023-04-24T05:37:41;10.00;85.90
52963;DHT22;38827;53.024;6.596;2023-04-24T05:40:08;10.00;86.00
52963;DHT22;38827;53.024;6.596;2023-04-24T05:42:34;10.10;85.90
52963;DHT22;38827;53.024;6.596;2023-04-24T05:44:59;10.10;85.90
52963;DHT22;38827;53.024;6.596;2023-04-24T05:47:25;10.10;85.90
52963;DHT22;38827;53.024;6.596;2023-04-24T05:49:52;10.10;85.80
52963;DHT22;38827;53.024;6.596;2023-04-24T05:52:18;10.20;85.80
52963;DHT22;38827;53.024;6.596;2023-04-24T05:54:47;10.20;85.80
52963;DHT22;38827;53.024;6.596;2023-04-24T05:57:13;10.30;85.90
52963;DHT22;38827;53.024;6.596;2023-04-24T05:59:40;10.30;85.70
52963;DHT22;38827;53.024;6.596;2023-04-24T06:02:06;10.30;85.50
52963;DHT22;38827;53.024;6.596;2023-04-24T06:04:32;10.30;85.80
52963;DHT22;38827;53.024;6.596;2023-04-24T06:06:58;10.30;85.80
52963;DHT22;38827;53.024;6.596;2023-04-24T06:09:24;10.40;85.60
52963;DHT22;38827;53.024;6.596;2023-04-24T06:11:50;10.40;85.70
52963;DHT22;38827;53.024;6.596;2023-04-24T06:14:19;10.50;85.80
52963;DHT22;38827;53.024;6.596;2023-04-24T06:16:45;10.60;85.70
52963;DHT22;38827;53.024;6.596;2023-04-24T06:19:14;10.60;85.50
52963;DHT22;38827;53.024;6.596;2023-04-24T06:21:40;10.60;85.50
52963;DHT22;38827;53.024;6.596;2023-04-24T06:24:08;10.60;85.30
52963;DHT22;38827;53.024;6.596;2023-04-24T06:26:39;10.60;85.40
52963;DHT22;38827;53.024;6.596;2023-04-24T06:29:06;10.60;85.50
52963;DHT22;38827;53.024;6.596;2023-04-24T06:31:32;10.60;85.50
52963;DHT22;38827;53.024;6.596;2023-04-24T06:34:05;10.60;85.60
52963;DHT22;38827;53.024;6.596;2023-04-24T06:36:40;10.50;85.70
52963;DHT22;38827;53.024;6.596;2023-04-24T06:39:06;10.50;85.70
52963;DHT22;38827;53.024;6.596;2023-04-24T06:41:32;10.50;85.90
52963;DHT22;38827;53.024;6.596;2023-04-24T06:43:57;10.40;86.00
52963;DHT22;38827;53.024;6.596;2023-04-24T06:46:23;10.40;86.00
52963;DHT22;38827;53.024;6.596;2023-04-24T06:48:52;10.40;86.30
52963;DHT22;38827;53.024;6.596;2023-04-24T06:51:18;10.40;86.30
52963;DHT22;38827;53.024;6.596;2023-04-24T06:53:43;10.40;86.30
52963;DHT22;38827;53.024;6.596;2023-04-24T06:56:09;10.40;86.50
52963;DHT22;38827;53.024;6.596;2023-04-24T06:58:35;10.40;86.80
52963;DHT22;38827;53.024;6.596;2023-04-24T07:01:01;10.40;86.60
52963;DHT22;38827;53.024;6.596;2023-04-24T07:03:27;10.40;86.80
52963;DHT22;38827;53.024;6.596;2023-04-24T07:05:54;10.40;86.80
52963;DHT22;38827;53.024;6.596;2023-04-24T07:08:57;10.40;87.40
52963;DHT22;38827;53.024;6.596;2023-04-24T07:11:25;10.40;86.90
52963;DHT22;38827;53.024;6.596;2023-04-24T07:13:59;10.40;86.70
52963;DHT22;38827;53.024;6.596;2023-04-24T07:16:28;10.40;86.70
52963;DHT22;38827;53.024;6.596;2023-04-24T07:18:54;10.40;86.50
52963;DHT22;38827;53.024;6.596;2023-04-24T07:21:22;10.40;86.30
52963;DHT22;38827;53.024;6.596;2023-04-24T07:23:57;10.40;86.20
52963;DHT22;38827;53.024;6.596;2023-04-24T07:26:23;10.40;86.30
52963;DHT22;38827;53.024;6.596;2023-04-24T07:28:48;10.40;86.30
52963;DHT22;38827;53.024;6.596;2023-04-24T07:31:19;10.40;86.20
52963;DHT22;38827;53.024;6.596;2023-04-24T07:33:48;10.50;86.20
52963;DHT22;38827;53.024;6.596;2023-04-24T07:36:17;10.40;86.00
52963;DHT22;38827;53.024;6.596;2023-04-24T07:41:54;10.40;85.60
52963;DHT22;38827;53.024;6.596;2023-04-24T07:44:19;10.40;85.70
52963;DHT22;38827;53.024;6.596;2023-04-24T07:46:48;10.40;85.60
52963;DHT22;38827;53.024;6.596;2023-04-24T07:49:16;10.40;85.40
52963;DHT22;38827;53.024;6.596;2023-04-24T07:51:43;10.30;85.60
52963;DHT22;38827;53.024;6.596;2023-04-24T07:54:12;10.30;85.60
52963;DHT22;38827;53.024;6.596;2023-04-24T07:56:41;10.20;85.90
52963;DHT22;38827;53.024;6.596;2023-04-24T07:59:08;10.10;85.90
52963;DHT22;38827;53.024;6.596;2023-04-24T08:01:35;10.10;85.90
52963;DHT22;38827;53.024;6.596;2023-04-24T08:04:02;10.00;86.70
52963;DHT22;38827;53.024;6.596;2023-04-24T08:06:28;10.00;86.50
52963;DHT22;38827;53.024;6.596;2023-04-24T08:08:56;10.10;86.30
52963;DHT22;38827;53.024;6.596;2023-04-24T08:11:22;10.10;86.10
52963;DHT22;38827;53.024;6.596;2023-04-24T08:13:51;10.10;85.90
52963;DHT22;38827;53.024;6.596;2023-04-24T08:16:16;10.10;85.80
52963;DHT22;38827;53.024;6.596;2023-04-24T08:18:45;10.00;85.60
52963;DHT22;38827;53.024;6.596;2023-04-24T08:21:15;10.00;85.60
52963;DHT22;38827;53.024;6.596;2023-04-24T08:23:51;9.90;85.40
52963;DHT22;38827;53.024;6.596;2023-04-24T08:26:22;9.80;85.20
52963;DHT22;38827;53.024;6.596;2023-04-24T08:28:50;9.80;85.40
52963;DHT22;38827;53.024;6.596;2023-04-24T08:31:16;9.70;85.60
52963;DHT22;38827;53.024;6.596;2023-04-24T08:33:45;9.70;85.50
52963;DHT22;38827;53.024;6.596;2023-04-24T08:36:11;9.70;85.20
52963;DHT22;38827;53.024;6.596;2023-04-24T08:38:37;9.60;85.30
52963;DHT22;38827;53.024;6.596;2023-04-24T08:41:03;9.60;85.40
52963;DHT22;38827;53.024;6.596;2023-04-24T08:43:30;9.60;85.50
52963;DHT22;38827;53.024;6.596;2023-04-24T08:45:58;9.60;85.70
52963;DHT22;38827;53.024;6.596;2023-04-24T08:48:25;9.50;85.50
52963;DHT22;38827;53.024;6.596;2023-04-24T08:50:52;9.50;85.50
52963;DHT22;38827;53.024;6.596;2023-04-24T08:53:18;9.50;85.50
52963;DHT22;38827;53.024;6.596;2023-04-24T08:55:47;9.50;85.50
52963;DHT22;38827;53.024;6.596;2023-04-24T08:58:17;9.50;85.40
52963;DHT22;38827;53.024;6.596;2023-04-24T09:00:44;9.40;85.50
52963;DHT22;38827;53.024;6.596;2023-04-24T09:03:14;9.40;85.70
52963;DHT22;38827;53.024;6.596;2023-04-24T09:05:41;9.40;85.60
52963;DHT22;38827;53.024;6.596;2023-04-24T09:08:11;9.30;85.10
52963;DHT22;38827;53.024;6.596;2023-04-24T09:10:39;9.30;85.10
52963;DHT22;38827;53.024;6.596;2023-04-24T09:13:05;9.20;85.20
52963;DHT22;38827;53.024;6.596;2023-04-24T09:15:31;9.20;85.30
52963;DHT22;38827;53.024;6.596;2023-04-24T09:17:59;9.20;84.80
52963;DHT22;38827;53.024;6.596;2023-04-24T09:20:24;9.20;84.80
52963;DHT22;38827;53.024;6.596;2023-04-24T09:22:54;9.20;84.50
52963;DHT22;38827;53.024;6.596;2023-04-24T09:25:21;9.20;84.20
52963;DHT22;38827;53.024;6.596;2023-04-24T09:27:46;9.20;84.00
52963;DHT22;38827;53.024;6.596;2023-04-24T09:30:13;9.30;83.60
52963;DHT22;38827;53.024;6.596;2023-04-24T09:32:39;9.30;83.60
52963;DHT22;38827;53.024;6.596;2023-04-24T09:35:06;9.30;83.60
52963;DHT22;38827;53.024;6.596;2023-04-24T09:37:46;9.30;83.40
52963;DHT22;38827;53.024;6.596;2023-04-24T09:40:20;9.40;83.70
52963;DHT22;38827;53.024;6.596;2023-04-24T09:42:56;9.50;83.40
52963;DHT22;38827;53.024;6.596;2023-04-24T09:45:28;9.50;83.20
52963;DHT22;38827;53.024;6.596;2023-04-24T09:47:55;9.50;82.90
52963;DHT22;38827;53.024;6.596;2023-04-24T09:50:24;9.50;83.00
52963;DHT22;38827;53.024;6.596;2023-04-24T09:52:57;9.50;83.00
52963;DHT22;38827;53.024;6.596;2023-04-24T09:55:26;9.50;83.00
52963;DHT22;38827;53.024;6.596;2023-04-24T09:57:59;9.50;83.30
52963;DHT22;38827;53.024;6.596;2023-04-24T10:00:30;9.40;83.50
52963;DHT22;38827;53.024;6.596;2023-04-24T10:05:36;9.50;83.40
52963;DHT22;38827;53.024;6.596;2023-04-24T10:08:07;9.50;83.10
52963;DHT22;38827;53.024;6.596;2023-04-24T10:10:34;9.50;82.90
52963;DHT22;38827;53.024;6.596;2023-04-24T10:13:00;9.50;82.60
52963;DHT22;38827;53.024;6.596;2023-04-24T10:15:27;9.50;82.20
52963;DHT22;38827;53.024;6.596;2023-04-24T10:17:53;9.50;81.50
52963;DHT22;38827;53.024;6.596;2023-04-24T10:22:49;9.60;81.70
52963;DHT22;38827;53.024;6.596;2023-04-24T10:25:22;9.70;81.60
52963;DHT22;38827;53.024;6.596;2023-04-24T10:27:49;9.80;81.10
52963;DHT22;38827;53.024;6.596;2023-04-24T10:30:16;9.80;81.10
52963;DHT22;38827;53.024;6.596;2023-04-24T10:32:42;9.90;80.60
52963;DHT22;38827;53.024;6.596;2023-04-24T10:35:15;9.90;80.20
52963;DHT22;38827;53.024;6.596;2023-04-24T10:37:46;9.90;79.50
52963;DHT22;38827;53.024;6.596;2023-04-24T10:40:25;9.90;78.90
52963;DHT22;38827;53.024;6.596;2023-04-24T10:42:53;9.90;78.60
52963;DHT22;38827;53.024;6.596;2023-04-24T10:45:21;9.90;78.20
52963;DHT22;38827;53.024;6.596;2023-04-24T10:48:01;9.90;77.70
52963;DHT22;38827;53.024;6.596;2023-04-24T10:50:28;9.90;77.40
52963;DHT22;38827;53.024;6.596;2023-04-24T10:53:05;9.90;77.00
52963;DHT22;38827;53.024;6.596;2023-04-24T10:55:56;9.90;76.20
52963;DHT22;38827;53.024;6.596;2023-04-24T10:58:24;9.90;76.20
52963;DHT22;38827;53.024;6.596;2023-04-24T11:00:58;9.90;77.00
52963;DHT22;38827;53.024;6.596;2023-04-24T11:03:32;10.00;75.70
52963;DHT22;38827;53.024;6.596;2023-04-24T11:06:08;10.00;75.10
52963;DHT22;38827;53.024;6.596;2023-04-24T11:08:44;10.00;74.80
52963;DHT22;38827;53.024;6.596;2023-04-24T11:16:54;10.00;73.50
52963;DHT22;38827;53.024;6.596;2023-04-24T11:19:26;10.10;73.50
52963;DHT22;38827;53.024;6.596;2023-04-24T11:22:05;10.10;73.30
52963;DHT22;38827;53.024;6.596;2023-04-24T11:24:48;10.20;72.60
52963;DHT22;38827;53.024;6.596;2023-04-24T11:27:16;10.10;73.00
52963;DHT22;38827;53.024;6.596;2023-04-24T11:32:26;10.00;72.40
52963;DHT22;38827;53.024;6.596;2023-04-24T11:34:57;9.90;72.50
52963;DHT22;38827;53.024;6.596;2023-04-24T11:37:28;9.90;72.60
52963;DHT22;38827;53.024;6.596;2023-04-24T11:39:56;9.90;72.50
52963;DHT22;38827;53.024;6.596;2023-04-24T11:42:23;10.00;72.20
52963;DHT22;38827;53.024;6.596;2023-04-24T11:44:50;10.20;72.40
52963;DHT22;38827;53.024;6.596;2023-04-24T11:47:17;10.50;72.50
52963;DHT22;38827;53.024;6.596;2023-04-24T11:49:43;10.70;71.60
52963;DHT22;38827;53.024;6.596;2023-04-24T11:52:08;10.70;70.90
52963;DHT22;38827;53.024;6.596;2023-04-24T11:54:36;10.70;71.40
52963;DHT22;38827;53.024;6.596;2023-04-24T11:57:04;10.60;69.00
52963;DHT22;38827;53.024;6.596;2023-04-24T11:59:35;10.50;71.60
52963;DHT22;38827;53.024;6.596;2023-04-24T12:02:02;10.40;70.70
52963;DHT22;38827;53.024;6.596;2023-04-24T12:04:38;10.30;70.00
52963;DHT22;38827;53.024;6.596;2023-04-24T12:07:04;10.10;69.60
52963;DHT22;38827;53.024;6.596;2023-04-24T12:09:55;9.90;70.30
52963;DHT22;38827;53.024;6.596;2023-04-24T12:12:24;9.80;70.10
52963;DHT22;38827;53.024;6.596;2023-04-24T12:14:56;9.70;71.00
52963;DHT22;38827;53.024;6.596;2023-04-24T12:17:30;9.70;71.20
52963;DHT22;38827;53.024;6.596;2023-04-24T12:20:07;9.60;71.20
52963;DHT22;38827;53.024;6.596;2023-04-24T12:25:20;9.60;70.60
52963;DHT22;38827;53.024;6.596;2023-04-24T12:27:46;9.60;70.80
52963;DHT22;38827;53.024;6.596;2023-04-24T12:30:16;9.70;71.70
52963;DHT22;38827;53.024;6.596;2023-04-24T12:32:48;9.80;71.40
52963;DHT22;38827;53.024;6.596;2023-04-24T12:35:24;9.80;71.50
52963;DHT22;38827;53.024;6.596;2023-04-24T12:37:50;9.90;71.10
52963;DHT22;38827;53.024;6.596;2023-04-24T12:40:17;10.00;71.30
52963;DHT22;38827;53.024;6.596;2023-04-24T12:42:45;10.10;71.20
52963;DHT22;38827;53.024;6.596;2023-04-24T12:45:12;10.10;71.10
52963;DHT22;38827;53.024;6.596;2023-04-24T12:47:39;10.20;71.00
52963;DHT22;38827;53.024;6.596;2023-04-24T12:50:06;10.30;71.20
52963;DHT22;38827;53.024;6.596;2023-04-24T12:52:31;10.40;71.20
52963;DHT22;38827;53.024;6.596;2023-04-24T12:54:59;10.50;71.20
52963;DHT22;38827;53.024;6.596;2023-04-24T12:57:26;10.50;71.30
52963;DHT22;38827;53.024;6.596;2023-04-24T12:59:54;10.50;70.90
52963;DHT22;38827;53.024;6.596;2023-04-24T13:02:21;10.30;70.70
52963;DHT22;38827;53.024;6.596;2023-04-24T13:04:47;10.20;71.30
52963;DHT22;38827;53.024;6.596;2023-04-24T13:07:14;10.10;71.60
52963;DHT22;38827;53.024;6.596;2023-04-24T13:09:41;10.10;71.90
52963;DHT22;38827;53.024;6.596;2023-04-24T13:12:07;10.10;71.90
52963;DHT22;38827;53.024;6.596;2023-04-24T13:14:33;10.20;71.40
52963;DHT22;38827;53.024;6.596;2023-04-24T13:16:59;10.30;71.10
52963;DHT22;38827;53.024;6.596;2023-04-24T13:19:26;10.50;70.80
52963;DHT22;38827;53.024;6.596;2023-04-24T13:21:53;10.50;70.70
52963;DHT22;38827;53.024;6.596;2023-04-24T13:24:19;10.60;70.10
52963;DHT22;38827;53.024;6.596;2023-04-24T13:26:45;10.50;68.60
52963;DHT22;38827;53.024;6.596;2023-04-24T13:29:11;10.40;70.10
52963;DHT22;38827;53.024;6.596;2023-04-24T13:31:36;10.40;70.30
52963;DHT22;38827;53.024;6.596;2023-04-24T13:34:03;10.30;70.30
52963;DHT22;38827;53.024;6.596;2023-04-24T13:36:29;10.30;70.60
52963;DHT22;38827;53.024;6.596;2023-04-24T13:38:55;10.30;70.70
52963;DHT22;38827;53.024;6.596;2023-04-24T13:41:21;10.30;70.50
52963;DHT22;38827;53.024;6.596;2023-04-24T13:43:47;10.30;70.00
52963;DHT22;38827;53.024;6.596;2023-04-24T13:46:13;10.30;69.30
52963;DHT22;38827;53.024;6.596;2023-04-24T13:48:38;10.40;68.80
52963;DHT22;38827;53.024;6.596;2023-04-24T13:51:04;10.50;67.80
52963;DHT22;38827;53.024;6.596;2023-04-24T13:53:29;10.60;67.20
52963;DHT22;38827;53.024;6.596;2023-04-24T13:55:55;10.70;66.70
52963;DHT22;38827;53.024;6.596;2023-04-24T13:58:21;10.80;66.40
52963;DHT22;38827;53.024;6.596;2023-04-24T14:00:46;10.70;66.30
52963;DHT22;38827;53.024;6.596;2023-04-24T14:03:12;10.70;66.10
52963;DHT22;38827;53.024;6.596;2023-04-24T14:05:38;10.60;66.30
52963;DHT22;38827;53.024;6.596;2023-04-24T14:08:04;10.50;66.70
52963;DHT22;38827;53.024;6.596;2023-04-24T14:10:29;10.40;67.20
52963;DHT22;38827;53.024;6.596;2023-04-24T14:12:55;10.40;67.40
52963;DHT22;38827;53.024;6.596;2023-04-24T14:15:21;10.30;67.90
52963;DHT22;38827;53.024;6.596;2023-04-24T14:17:48;10.30;68.30
52963;DHT22;38827;53.024;6.596;2023-04-24T14:20:14;10.20;68.40
52963;DHT22;38827;53.024;6.596;2023-04-24T14:22:40;10.20;68.80
52963;DHT22;38827;53.024;6.596;2023-04-24T14:25:06;10.10;69.20
52963;DHT22;38827;53.024;6.596;2023-04-24T14:27:32;10.10;69.90
52963;DHT22;38827;53.024;6.596;2023-04-24T14:30:00;10.00;70.00
52963;DHT22;38827;53.024;6.596;2023-04-24T14:32:26;10.00;69.20
52963;DHT22;38827;53.024;6.596;2023-04-24T14:34:51;10.00;70.00
52963;DHT22;38827;53.024;6.596;2023-04-24T14:37:18;10.00;69.80
52963;DHT22;38827;53.024;6.596;2023-04-24T14:39:45;10.00;69.90
52963;DHT22;38827;53.024;6.596;2023-04-24T14:42:22;10.00;70.20
52963;DHT22;38827;53.024;6.596;2023-04-24T14:45:09;9.90;70.50
52963;DHT22;38827;53.024;6.596;2023-04-24T14:48:21;9.90;71.30
52963;DHT22;38827;53.024;6.596;2023-04-24T14:50:53;9.80;71.90
52963;DHT22;38827;53.024;6.596;2023-04-24T14:53:24;9.80;72.30
52963;DHT22;38827;53.024;6.596;2023-04-24T14:55:54;9.80;72.10
52963;DHT22;38827;53.024;6.596;2023-04-24T14:58:32;9.80;72.40
52963;DHT22;38827;53.024;6.596;2023-04-24T15:01:01;9.80;72.30
52963;DHT22;38827;53.024;6.596;2023-04-24T15:03:32;9.80;72.50
52963;DHT22;38827;53.024;6.596;2023-04-24T15:06:18;9.70;73.30
52963;DHT22;38827;53.024;6.596;2023-04-24T15:09:20;9.60;74.40
52963;DHT22;38827;53.024;6.596;2023-04-24T15:12:09;9.60;75.00
52963;DHT22;38827;53.024;6.596;2023-04-24T15:18:20;9.60;75.30
52963;DHT22;38827;53.024;6.596;2023-04-24T15:21:03;9.70;75.60
52963;DHT22;38827;53.024;6.596;2023-04-24T15:31:03;9.80;75.50
52963;DHT22;38827;53.024;6.596;2023-04-24T15:34:44;9.70;75.30
52963;DHT22;38827;53.024;6.596;2023-04-24T15:37:44;9.70;75.60
52963;DHT22;38827;53.024;6.596;2023-04-24T15:40:23;9.60;75.50
52963;DHT22;38827;53.024;6.596;2023-04-24T15:43:16;9.60;75.90
52963;DHT22;38827;53.024;6.596;2023-04-24T15:46:18;9.50;76.10
52963;DHT22;38827;53.024;6.596;2023-04-24T15:48:44;9.50;76.20
52963;DHT22;38827;53.024;6.596;2023-04-24T15:51:13;9.50;76.40
52963;DHT22;38827;53.024;6.596;2023-04-24T15:53:39;9.50;76.60
52963;DHT22;38827;53.024;6.596;2023-04-24T15:56:05;9.50;76.70
52963;DHT22;38827;53.024;6.596;2023-04-24T15:58:31;9.50;76.90
52963;DHT22;38827;53.024;6.596;2023-04-24T16:00:56;9.50;77.10
52963;DHT22;38827;53.024;6.596;2023-04-24T16:03:25;9.50;77.30
52963;DHT22;38827;53.024;6.596;2023-04-24T16:05:52;9.50;77.40
52963;DHT22;38827;53.024;6.596;2023-04-24T16:08:18;9.60;77.10
52963;DHT22;38827;53.024;6.596;2023-04-24T16:10:49;9.70;76.80
52963;DHT22;38827;53.024;6.596;2023-04-24T16:13:18;9.60;77.00
52963;DHT22;38827;53.024;6.596;2023-04-24T16:15:50;9.60;77.60